Huron, SD

8:29 PM CDT on April 24, 2015 (GMT -0500)
Huron Regional | | Change Station
CLOSE
Current Station
Airport
Location: Huron,
Elevation: 1289 ft
Nearby Weather Stations

Elev 1289 ft 44.39 °N, 98.23 °W | Updated 13 minutes ago

Mostly Cloudy
Mostly Cloudy
64 °F
Feels Like 64 °F
N
22
Wind Variable Wind from East
Gusts 30 mph

Today
High -- | Low -- °F
--% Chance of Precip.
Yesterday
High -- | Low -- °F
Precip. -- in
6:34 AM 8:28 PM
Waxing Crescent, 41% visible
Pressure 29.52 in
Visibility 10.0 miles
Clouds Scattered Clouds 7000 ft
Mostly Cloudy 10000 ft
Dew Point 50 °F
Humidity 60%
Rainfall 0.00 in
Snow Depth Not available.
UV 0 out of 12
Pollen 9.10 out of 12
Air Quality Not available.
Flu Activity Sporadic
SPECI KHON 250116Z AUTO 10019G26KT 10SM VCTS SCT070 BKN100 18/10 A2952 RMK AO2 PK WND 12026/0112 LTG DSNT S T01780100 $

More Conditions Fewer Conditions

Pressure 29.52 in
Visibility 10.0 miles
Clouds Scattered Clouds 7000 ft
Mostly Cloudy 10000 ft
Dew Point 50 °F
Humidity 60%
Rainfall 0.00 in
Snow Depth Not available.
UV 0 out of 12
Pollen 9.10 out of 12
Air Quality Not available.
Flu Activity Sporadic
SPECI KHON 250116Z AUTO 10019G26KT 10SM VCTS SCT070 BKN100 18/10 A2952 RMK AO2 PK WND 12026/0112 LTG DSNT S T01780100 $

More Conditions Fewer Conditions

10-Day Weather Forecast

Almanac

Astronomy

Apr. 24, 2015 Rise Set
Actual Time
Civil Twilight
Nautical Twilight
Astronomical Twilight
Moon
Length of Visible Light
Length of Day
Tomorrow will be .
, % of the Moon is Illuminated

Today's Extremes

State Highs State Lows

Community

WunderPhotos

Upload Photos

1,816,544 photos uploaded!

WunderBlogs® & News

Nearby

Air Quality

  Air Quality AQ Index Pollutant
Not available.

Snow Depth

Station Depth Elevation

Earthquake Activity

City Distance Mag. Time & Date
Minimum magnitude displayed is 2.5.

Coastal Water Temperatures

Place Temperature

Stations

Nearby Weather Stations

Station Location Temp. Windchill Dew Point Humidity Wind Precip. Elev Updated Type